createdAt,value
2022-09-20T17:46:50.898Z,12.78
2022-09-20T17:47:51.698Z,12.74
2022-09-20T17:48:51.680Z,12.71
2022-09-20T17:49:51.691Z,12.69
2022-09-20T17:50:51.666Z,12.66
2022-09-20T17:51:51.630Z,12.63
2022-09-20T17:52:51.852Z,12.59
2022-09-20T17:53:51.621Z,12.52
2022-09-20T17:54:51.643Z,12.48
2022-09-20T17:55:51.610Z,12.45
2022-09-20T17:56:51.586Z,12.39
2022-09-20T17:57:51.582Z,12.37
2022-09-20T17:58:51.586Z,12.33
2022-09-20T17:59:51.579Z,12.33
2022-09-20T18:00:51.576Z,12.31
2022-09-20T18:01:51.533Z,12.30
2022-09-20T18:02:51.542Z,12.30
2022-09-20T18:03:51.569Z,12.30
2022-09-20T18:04:51.548Z,12.29
2022-09-20T18:05:51.495Z,12.24
2022-09-20T18:06:51.491Z,12.24
2022-09-20T18:07:51.484Z,12.24
2022-09-20T18:08:51.466Z,12.21
2022-09-20T18:09:51.472Z,12.20
2022-09-20T18:10:51.448Z,12.19
2022-09-20T18:11:51.429Z,12.16
2022-09-20T18:12:51.444Z,12.13
2022-09-20T18:13:51.442Z,12.12
2022-09-20T18:14:51.427Z,12.09
2022-09-20T18:15:51.416Z,12.08
2022-09-20T18:16:51.410Z,12.05
2022-09-20T18:17:54.493Z,12.02
2022-09-20T18:18:51.363Z,12.02
2022-09-20T18:19:51.391Z,11.99
2022-09-20T18:20:51.352Z,12.01
2022-09-20T18:21:51.340Z,11.96
2022-09-20T18:22:51.345Z,11.97
2022-09-20T18:23:51.327Z,11.93
2022-09-20T18:24:51.346Z,11.93
2022-09-20T18:25:51.299Z,11.90
2022-09-20T18:26:51.287Z,11.87
2022-09-20T18:27:51.290Z,11.87
2022-09-20T18:28:51.277Z,11.85
2022-09-20T18:29:51.280Z,11.83
2022-09-20T18:30:51.246Z,11.83
2022-09-20T18:31:51.338Z,11.82
2022-09-20T18:32:51.239Z,11.80
2022-09-20T18:33:51.209Z,11.78
2022-09-20T18:34:51.246Z,11.78
2022-09-20T18:35:51.197Z,11.78
2022-09-20T18:36:51.181Z,11.78
2022-09-20T18:37:51.168Z,11.75
2022-09-20T18:38:51.173Z,11.75
2022-09-20T18:39:51.979Z,11.72
2022-09-20T18:40:51.194Z,11.74
2022-09-20T18:41:51.130Z,11.72
2022-09-20T18:42:51.129Z,11.71
2022-09-20T18:43:51.138Z,11.70
2022-09-20T18:44:51.118Z,11.68
2022-09-20T18:45:51.105Z,11.67
2022-09-20T18:46:51.170Z,11.64
2022-09-20T18:47:51.081Z,11.62
2022-09-20T18:48:51.077Z,11.62
2022-09-20T18:49:51.118Z,11.61
2022-09-20T18:50:51.038Z,11.61
2022-09-20T18:51:51.041Z,11.59
2022-09-20T18:52:51.037Z,11.57
2022-09-20T18:53:51.027Z,11.59
2022-09-20T18:54:51.020Z,11.57
2022-09-20T18:55:50.996Z,11.56
2022-09-20T18:56:50.989Z,11.57
2022-09-20T18:57:50.973Z,11.56
2022-09-20T18:58:50.973Z,11.54
2022-09-20T18:59:54.671Z,11.56
2022-09-20T19:00:50.999Z,11.54
2022-09-20T19:01:51.125Z,11.56
2022-09-20T19:02:50.918Z,11.53
2022-09-20T19:03:50.914Z,11.52
2022-09-20T19:04:50.914Z,11.53
2022-09-20T19:05:50.891Z,11.50
2022-09-20T19:06:50.877Z,11.52
2022-09-20T19:07:50.893Z,11.49
2022-09-20T19:08:50.856Z,11.44
2022-09-20T19:09:50.888Z,11.46
2022-09-20T19:10:50.846Z,11.44
2022-09-20T19:11:50.907Z,11.39
2022-09-20T19:12:50.827Z,11.38
2022-09-20T19:13:50.821Z,11.36
2022-09-20T19:14:50.834Z,11.35
2022-09-20T19:15:50.880Z,11.34
2022-09-20T19:16:50.777Z,11.32
2022-09-20T19:17:50.768Z,11.29
2022-09-20T19:18:50.776Z,11.29
2022-09-20T19:19:50.782Z,11.28
2022-09-20T19:20:50.754Z,11.28
2022-09-20T19:21:50.727Z,11.27
2022-09-20T19:22:50.713Z,11.28
2022-09-20T19:23:50.711Z,11.27
2022-09-20T19:24:50.724Z,11.24
2022-09-20T19:25:50.690Z,11.24
2022-09-20T19:26:50.673Z,11.24
2022-09-20T19:27:50.691Z,11.24
2022-09-20T19:28:50.650Z,11.25
2022-09-20T19:29:50.666Z,11.27
2022-09-20T19:30:50.641Z,11.24
2022-09-20T19:31:50.629Z,11.25
2022-09-20T19:32:50.631Z,11.24
2022-09-20T19:33:50.625Z,11.25
2022-09-20T19:34:50.633Z,11.25
2022-09-20T19:35:50.605Z,11.24
2022-09-20T19:36:50.588Z,11.24
2022-09-20T19:37:50.566Z,11.21
2022-09-20T19:38:50.561Z,11.21
2022-09-20T19:39:50.586Z,11.24
2022-09-20T19:40:50.531Z,11.21
2022-09-20T19:41:50.526Z,11.24
2022-09-20T19:42:50.531Z,11.21
2022-09-20T19:43:50.516Z,11.20
2022-09-20T19:44:50.508Z,11.20
2022-09-20T19:45:50.494Z,11.20
2022-09-20T19:46:50.527Z,11.21
2022-09-20T19:47:50.469Z,11.21
2022-09-20T19:48:50.468Z,11.21
2022-09-20T19:49:50.480Z,11.20
2022-09-20T19:50:50.431Z,11.20
2022-09-20T19:51:50.441Z,11.20
2022-09-20T19:52:50.420Z,11.21
2022-09-20T19:53:50.405Z,11.21
2022-09-20T19:54:50.430Z,11.21
2022-09-20T19:55:50.424Z,11.21
2022-09-20T19:56:50.382Z,11.21
2022-09-20T19:57:50.363Z,11.21
2022-09-20T19:58:50.369Z,11.24
2022-09-20T19:59:50.364Z,11.25
2022-09-20T20:00:50.328Z,11.24
2022-09-20T20:01:50.382Z,11.25
2022-09-20T20:02:50.384Z,11.24
2022-09-20T20:03:50.305Z,11.25
2022-09-20T20:04:50.306Z,11.24
2022-09-20T20:05:50.294Z,11.24
2022-09-20T20:06:52.058Z,11.24
2022-09-20T20:07:50.268Z,11.24
2022-09-20T20:08:50.372Z,11.21
2022-09-20T20:09:50.378Z,11.21
2022-09-20T20:10:52.344Z,11.24
2022-09-20T20:11:50.226Z,11.24
2022-09-20T20:12:50.216Z,11.21
2022-09-20T20:13:50.209Z,11.19
2022-09-20T20:14:50.217Z,11.19
2022-09-20T20:15:50.239Z,11.16
2022-09-20T20:16:50.175Z,11.13
2022-09-20T20:17:50.169Z,11.13
2022-09-20T20:18:50.427Z,11.07
2022-09-20T20:19:50.177Z,11.07
2022-09-20T20:20:50.137Z,11.03
2022-09-20T20:21:50.140Z,11.03
2022-09-20T20:22:50.105Z,11.03
2022-09-20T20:23:50.100Z,11.02
2022-09-20T20:24:50.135Z,11.02
2022-09-20T20:25:50.082Z,11.02
2022-09-20T20:26:50.065Z,11.02
2022-09-20T20:27:50.093Z,11.01
2022-09-20T20:28:50.046Z,11.01
2022-09-20T20:29:50.064Z,11.01
2022-09-20T20:30:50.107Z,11.01
2022-09-20T20:31:50.023Z,11.01
2022-09-20T20:32:50.024Z,10.99
2022-09-20T20:33:50.008Z,11.02
2022-09-20T20:34:50.014Z,11.01
2022-09-20T20:35:49.999Z,11.01
2022-09-20T20:36:49.975Z,11.01
2022-09-20T20:37:49.973Z,11.01
2022-09-20T20:38:50.104Z,10.98
2022-09-20T20:39:49.978Z,10.96
2022-09-20T20:40:49.924Z,10.96
2022-09-20T20:41:49.928Z,10.96
2022-09-20T20:42:49.924Z,10.95
2022-09-20T20:43:49.899Z,10.94
2022-09-20T20:44:49.917Z,10.95
2022-09-20T20:45:49.895Z,10.95
2022-09-20T20:46:49.864Z,10.94
2022-09-20T20:47:49.859Z,10.92
2022-09-20T20:48:49.855Z,10.92
2022-09-20T20:49:52.652Z,10.92
2022-09-20T20:50:49.834Z,10.89
2022-09-20T20:51:49.828Z,10.91
2022-09-20T20:52:49.824Z,10.91
2022-09-20T20:53:49.796Z,10.91
2022-09-20T20:54:50.442Z,10.91
2022-09-20T20:55:49.797Z,10.92
2022-09-20T20:56:49.763Z,10.89
2022-09-20T20:57:49.775Z,10.88
2022-09-20T20:58:49.751Z,10.88
2022-09-20T20:59:49.758Z,10.88
2022-09-20T21:00:49.733Z,10.86
2022-09-20T21:01:49.790Z,10.84
2022-09-20T21:02:49.750Z,10.84
2022-09-20T21:03:49.699Z,10.84
2022-09-20T21:04:49.727Z,10.83
2022-09-20T21:05:49.684Z,10.80
2022-09-20T21:06:49.707Z,10.83
2022-09-20T21:07:49.916Z,10.81
2022-09-20T21:08:50.049Z,10.80
2022-09-20T21:09:49.670Z,10.80
2022-09-20T21:10:49.637Z,10.78
2022-09-20T21:11:49.616Z,10.77
2022-09-20T21:12:49.610Z,10.78
2022-09-20T21:13:49.594Z,10.77
2022-09-20T21:14:49.603Z,10.76
2022-09-20T21:15:49.609Z,10.76
2022-09-20T21:16:49.577Z,10.74
2022-09-20T21:17:49.557Z,10.77
2022-09-20T21:18:49.542Z,10.76
2022-09-20T21:19:49.583Z,10.74
2022-09-20T21:20:49.518Z,10.73
2022-09-20T21:21:49.512Z,10.74
2022-09-20T21:22:49.500Z,10.73
2022-09-20T21:23:49.493Z,10.73
2022-09-20T21:24:49.517Z,10.71
2022-09-20T21:25:49.492Z,10.71
2022-09-20T21:26:49.462Z,10.71
2022-09-20T21:27:49.453Z,10.68
2022-09-20T21:28:49.445Z,10.68
2022-09-20T21:29:49.466Z,10.68
2022-09-20T21:30:49.428Z,10.66
2022-09-20T21:31:49.429Z,10.66
2022-09-20T21:32:49.408Z,10.65
2022-09-20T21:33:49.404Z,10.63
2022-09-20T21:34:49.411Z,10.62
2022-09-20T21:35:49.388Z,10.59
2022-09-20T21:36:49.364Z,10.56
2022-09-20T21:37:49.362Z,10.52
2022-09-20T21:38:49.336Z,10.53
2022-09-20T21:39:49.366Z,10.52
2022-09-20T21:40:49.326Z,10.53
2022-09-20T21:41:49.323Z,10.52
2022-09-20T21:42:49.297Z,10.52
2022-09-20T21:43:49.293Z,10.52
2022-09-20T21:44:49.313Z,10.52
2022-09-20T21:45:49.978Z,10.46
2022-09-20T21:46:49.271Z,10.47
2022-09-20T21:47:49.260Z,10.44
2022-09-20T21:48:49.237Z,10.46
2022-09-20T21:49:49.249Z,10.44
2022-09-20T21:50:49.251Z,10.44
2022-09-20T21:51:49.225Z,10.42
2022-09-20T21:52:49.191Z,10.43
2022-09-20T21:53:49.206Z,10.42
2022-09-20T21:54:49.193Z,10.42
2022-09-20T21:55:49.168Z,10.40
2022-09-20T21:56:49.164Z,10.39
2022-09-20T21:57:49.161Z,10.40
2022-09-20T21:58:49.134Z,10.37
2022-09-20T21:59:49.148Z,10.37
2022-09-20T22:00:49.130Z,10.33
2022-09-20T22:01:49.139Z,10.28
2022-09-20T22:02:49.115Z,10.28
2022-09-20T22:03:49.099Z,10.26
2022-09-20T22:04:49.093Z,10.25
2022-09-20T22:05:49.085Z,10.22
2022-09-20T22:06:49.063Z,10.21
2022-09-20T22:07:49.056Z,10.19
2022-09-20T22:08:49.034Z,10.14
2022-09-20T22:09:49.064Z,10.14
2022-09-20T22:10:49.021Z,10.14
2022-09-20T22:11:49.009Z,10.14
2022-09-20T22:12:49.010Z,10.14
2022-09-20T22:13:49.007Z,10.12
2022-09-20T22:14:49.005Z,10.12
2022-09-20T22:15:49.027Z,10.10
2022-09-20T22:16:48.954Z,10.14
2022-09-20T22:17:48.948Z,10.12
2022-09-20T22:18:48.933Z,10.14
2022-09-20T22:19:48.964Z,10.10
2022-09-20T22:20:48.911Z,10.12
2022-09-20T22:21:48.904Z,10.12
2022-09-20T22:22:48.912Z,10.12
2022-09-20T22:23:48.884Z,10.15
2022-09-20T22:24:48.903Z,10.12
2022-09-20T22:25:48.875Z,10.14
2022-09-20T22:26:48.869Z,10.14
2022-09-20T22:27:48.848Z,10.10
2022-09-20T22:28:48.830Z,10.10
2022-09-20T22:29:48.843Z,10.09
2022-09-20T22:30:48.907Z,10.07
2022-09-20T22:31:48.806Z,10.07
2022-09-20T22:32:48.790Z,10.06
2022-09-20T22:33:48.788Z,10.06
2022-09-20T22:34:48.802Z,10.01
2022-09-20T22:35:48.776Z,10.01
2022-09-20T22:36:48.767Z,10.03
2022-09-20T22:37:48.764Z,10.01
2022-09-20T22:38:48.729Z,9.97
2022-09-20T22:39:48.755Z,9.97
2022-09-20T22:40:48.733Z,9.97
2022-09-20T22:41:48.706Z,9.97
2022-09-20T22:42:49.546Z,9.94
2022-09-20T22:43:48.696Z,9.91
2022-09-20T22:44:48.706Z,9.88
2022-09-20T22:45:48.692Z,9.85
2022-09-20T22:46:48.661Z,9.83
2022-09-20T22:47:48.661Z,9.81
2022-09-20T22:48:48.638Z,9.79
2022-09-20T22:49:48.662Z,9.78
2022-09-20T22:50:48.611Z,9.78
2022-09-20T22:51:48.604Z,9.75
2022-09-20T22:52:48.610Z,9.75
2022-09-20T22:53:48.602Z,9.73
2022-09-20T22:54:48.607Z,9.73
2022-09-20T22:55:48.562Z,9.70
2022-09-20T22:56:48.562Z,9.68
2022-09-20T22:57:48.538Z,9.67
2022-09-20T22:58:48.547Z,9.64
2022-09-20T22:59:48.559Z,9.63
2022-09-20T23:00:48.525Z,9.60
2022-09-20T23:01:48.519Z,9.58
2022-09-20T23:02:48.494Z,9.56
2022-09-20T23:03:48.515Z,9.56
2022-09-20T23:04:48.512Z,9.49
2022-09-20T23:05:48.457Z,9.48
2022-09-20T23:06:48.453Z,9.48
2022-09-20T23:07:48.453Z,9.45
2022-09-20T23:08:48.436Z,9.40
2022-09-20T23:09:48.441Z,9.38
2022-09-20T23:10:48.428Z,9.34
2022-09-20T23:11:48.395Z,9.32
2022-09-20T23:12:48.396Z,9.30
2022-09-20T23:13:48.392Z,9.28
2022-09-20T23:14:48.394Z,9.27
2022-09-20T23:15:48.358Z,9.24
2022-09-20T23:16:48.460Z,9.21
2022-09-20T23:17:48.346Z,9.18
2022-09-20T23:18:48.348Z,9.12
2022-09-20T23:19:48.335Z,9.13
2022-09-20T23:20:48.328Z,9.12
2022-09-20T23:21:48.294Z,9.06
2022-09-20T23:22:48.300Z,9.05
2022-09-20T23:23:48.289Z,9.05
2022-09-20T23:24:48.309Z,9.05
2022-09-20T23:25:48.256Z,9.02
2022-09-20T23:26:48.262Z,9.02
2022-09-20T23:27:48.235Z,9.02
2022-09-20T23:28:48.229Z,8.99
2022-09-20T23:29:48.242Z,8.99
2022-09-20T23:30:48.323Z,8.99
2022-09-20T23:31:48.205Z,8.97
2022-09-20T23:32:48.192Z,8.97
2022-09-20T23:33:48.193Z,8.96
2022-09-20T23:34:48.212Z,8.97
2022-09-20T23:35:48.168Z,8.93
2022-09-20T23:36:48.150Z,8.96
2022-09-20T23:37:48.146Z,8.93
2022-09-20T23:38:48.130Z,8.88
2022-09-20T23:39:48.156Z,8.90
2022-09-20T23:40:48.126Z,8.87
2022-09-20T23:41:51.065Z,8.87
2022-09-20T23:42:48.106Z,8.84
2022-09-20T23:43:48.075Z,8.84
2022-09-20T23:44:48.107Z,8.79
2022-09-20T23:45:48.150Z,8.79
2022-09-20T23:46:48.049Z,8.78
2022-09-20T23:47:48.067Z,8.78
2022-09-20T23:48:48.030Z,8.75
2022-09-20T23:49:48.038Z,8.73
2022-09-20T23:50:48.023Z,8.72
2022-09-20T23:51:48.013Z,8.71
2022-09-20T23:52:48.000Z,8.69
2022-09-20T23:53:47.992Z,8.66
2022-09-20T23:54:48.000Z,8.63
2022-09-20T23:55:47.955Z,8.60
2022-09-20T23:56:47.969Z,8.58
2022-09-20T23:57:47.953Z,8.54
2022-09-20T23:58:47.939Z,8.51
2022-09-20T23:59:47.945Z,8.50
